Welcome to the New NWS' Forecast!
Most changes are behind the scenes, but click here for differences you might notice.

Terminal Aerodrome Forecast (TAF)

Issued by National Weather Service (NWS)

                            
371 
FTUS42 KKEY 180950 AAA
TAFEYW
TAF AMD
KEYW 180950Z 1810/1906 09009KT P6SM VCSH SCT025
     FM181600 12008G16KT P6SM VCTS SCT025CB BKN050
     FM190200 09008KT P6SM SCT025=